MMCN 090240Z 06003KT 10SM BKN100 18/07 A2995 RMK SLP143 8/030 HZY= 090240

MMCN 090142Z 26002KT 10SM BKN100 18/08 A2995 RMK 8/030 HZY= 090142

MMCN 090040Z 00000KT 10SM BKN100 OVC200 20/08 A2993 RMK 8/037 BINOVC= 090041

MMCN 082340Z 26003KT 10SM BKN100 OVC200 22/06 A2993 RMK SLP136 8/032 HZY= 082341

MMCN 082241Z 00000KT 10SM SCT080 OVC100 23/05 A2993 RMK 8/03/ HZY ISOL SC= 082242

MMCN 082140Z 23003KT 10SM BKN080 OVC100 23/06 A2994 RMK 8/03/ HZY= 082141

MMCN 082040Z 18002KT 10SM SCT080 OVC200 24/03 A2995 RMK SLP143 8/03/ HZY= 082041

MMCN 081940Z 13003KT 10SM FEW080 BKN100 24/02 A2996 RMK 8/030 HZY= 081940

MMCN 081840Z 16004KT 10SM FEW045 BKN100 OVC200 22/04 A2998 RMK 8/537 BINOVC= 081840

MMCN 081740Z 35002KT 10SM FEW045 BKN100 OVC200 20/08 A2999 RMK SLP156 8/537 BINOVC HZY= 081741

MMCN 081640Z 00000KT 10SM FEW040 BKN100 BKN200 18/08 A3000 RMK 8/232 HZY= 081640

MMCN 081540Z 00000KT 10SM FEW040 BKN100 BKN200 14/07 A2998 RMK 8/632 HZY= 081541

MMCN 081442Z 00000KT 10SM FEW040 BKN100 BKN200 12/05 A2996 RMK SLP146 8/632 HZY= 081443

MMCN 081342Z 00000KT 10SM SCT100 BKN200 12/06 A2995 RMK 8/031 HZY= 081342

MMCN 081257Z RTD 05003KT 8SM SCT200 12/06 A2994 RMK 8/001 HZY RTS= 081258

MMCN 080240Z 00000KT 10SM SCT200 16/12 A2994 RMK SLP139 8/001 HZY= 080240

MMCN 080140Z 00000KT 10SM BKN200 18/10 A2992 RMK 8/001= 080141

MMCN 080040Z 25003KT 10SM BKN200 21/10 A2992 RMK 8/001 HZY= 080040

MMCN 072340Z 21006KT 10SM BKN200 24/08 A2991 RMK SLP129 8/001= 072341

MMCN 072247Z 23005KT 10SM BKN200 26/03 A2991 RMK 8/001 HZY= 072248

MMCN 072140Z 22002KT 10SM SCT200 28/02 A2991 RMK 8/001 HZY= 072140

MMCN 072040Z 20005KT 10SM SCT200 28/01 A2991 RMK SLP129 8/001 HZY= 072040

MMCN 071940Z 21006KT 10SM FEW200 27/04 A2994 RMK 8/001 HZY= 071940

COR MMCN 071842Z 21003KT 10SM FEW200 27/04 A2996 RMK 8/001 HZY= 071848

MMCN 071842Z 21003KT 10SM FEW200 24/04 A2996 RMK 8/001 HZY= 071843

MMCN 071740Z 15007KT 10SM FEW200 25/04 A2998 RMK SLP153 8/001 HZY= 071743

MMCN 071640Z 12005KT 10SM FEW200 22/06 A2998 RMK 8/001 HZY= 071641

MMCN 071540Z 00000KT 10SM FEW200 18/07 A2997 RMK 8/001 HZY= 071541

MMCN 071440Z 00000KT 10SM SKC 11/06 A2995 RMK SLP143 HZY= 071440

MMCN 071343Z 01002KT 10SM SKC 09/05 A2994 RMK HZY= 071344

MMCN 071301Z RTD 36003KT 10SM SKC 09/05 A2992 RMK HZY RTS= 071301

MMCN 070243Z 00000KT 10SM SKC 17/10 A2995 RMK SLP143 HZY= 070243

MMCN 070140Z 00000KT 10SM SKC 20/12 A2996 RMK HZY= 070141

MMCN 070046Z 26005KT 10SM SKC 22/11 A2995 RMK HZY= 070047

MMCN 062356Z 24004KT 10SM SKC 26/03 A2994 RMK SLP139 HZY= 062356

MMCN 062247Z 25006KT 10SM SKC 28/02 A2994 RMK HZY= 062247

MMCN 062146Z 23005KT 10SM SKC 29/01 A2994 RMK HZY= 062148

MMCN 062046Z 22005KT 10SM SKC 29/01 A2994 RMK SLP139 HZY= 062046

MMCN 061947Z 00000KT 10SM SKC 28/01 A2997 RMK HZY= 061947

MMCN 061843Z 02005KT 10SM SKC 26/04 A3001 RMK HZY= 061844

MMCN 061748Z 35002KT 10SM SKC 24/05 A3004 RMK SLP173 HZY= 061749

MMCN 061644Z 33004KT 10SM SKC 20/07 A3004 RMK HZY= 061645

MMCN 061544Z 00000KT 10SM SKC 17/07 A3002 RMK HZY= 061545

MMCN 061442Z 13002KT 10SM SKC 12/06 A3000 RMK SLP1510 HZY= 061443

MMCN 061346Z 07002KT 10SM SKC 08/05 A2999 RMK HZY= 061346

MMCN 061306Z RTD 11006KT 10SM SKC 09/05 A2997 RMK HZY RTS= 061307

MMCN 060243Z 12002KT 10SM SKC 16/09 A2990 RMK SLP126 HZY= 060243